createdAt,value
2023-04-02T00:00:27.337Z,1.20
2023-04-02T00:01:27.305Z,1.00
2023-04-02T00:02:27.462Z,1.30
2023-04-02T00:03:27.352Z,1.20
2023-04-02T00:04:27.263Z,1.70
2023-04-02T00:05:27.296Z,1.80
2023-04-02T00:06:27.244Z,1.20
2023-04-02T00:07:27.231Z,1.20
2023-04-02T00:08:27.211Z,1.10
2023-04-02T00:09:27.195Z,1.40
2023-04-02T00:10:27.248Z,2.00
2023-04-02T00:11:27.171Z,2.40
2023-04-02T00:12:27.177Z,1.60
2023-04-02T00:13:27.144Z,2.40
2023-04-02T00:14:27.145Z,1.60
2023-04-02T00:15:27.140Z,3.70
2023-04-02T00:16:27.142Z,3.10
2023-04-02T00:17:27.108Z,1.40
2023-04-02T00:18:27.138Z,1.50
2023-04-02T00:19:27.066Z,1.60
2023-04-02T00:20:27.077Z,2.00
2023-04-02T00:21:27.082Z,2.60
2023-04-02T00:22:27.046Z,1.70
2023-04-02T00:23:27.012Z,1.40
2023-04-02T00:24:27.040Z,3.90
2023-04-02T00:25:27.044Z,2.40
2023-04-02T00:26:26.991Z,1.40
2023-04-02T00:27:26.987Z,1.70
2023-04-02T00:28:26.968Z,1.70
2023-04-02T00:29:26.947Z,2.30
2023-04-02T00:30:26.942Z,1.80
2023-04-02T00:31:27.024Z,2.40
2023-04-02T00:32:26.935Z,3.00
2023-04-02T00:33:26.887Z,1.90
2023-04-02T00:34:26.867Z,1.60
2023-04-02T00:35:26.873Z,1.80
2023-04-02T00:36:26.898Z,1.80
2023-04-02T00:37:26.864Z,2.20
2023-04-02T00:38:26.824Z,1.60
2023-04-02T00:39:26.827Z,1.20
2023-04-02T00:40:26.818Z,4.10
2023-04-02T00:41:26.781Z,1.30
2023-04-02T00:42:26.778Z,1.20
2023-04-02T00:43:26.754Z,1.90
2023-04-02T00:44:26.760Z,1.90
2023-04-02T00:45:26.803Z,5.30
2023-04-02T00:46:26.831Z,1.40
2023-04-02T00:47:26.714Z,1.60
2023-04-02T00:48:26.696Z,1.50
2023-04-02T00:49:26.693Z,2.30
2023-04-02T00:50:26.730Z,1.80
2023-04-02T00:51:26.650Z,1.80
2023-04-02T00:52:26.656Z,1.30
2023-04-02T00:53:26.615Z,3.90
2023-04-02T00:54:26.632Z,4.30
2023-04-02T00:55:26.622Z,1.50
2023-04-02T00:56:26.615Z,3.10
2023-04-02T00:57:26.620Z,1.80
2023-04-02T00:58:26.585Z,1.90
2023-04-02T00:59:26.557Z,1.10
2023-04-02T01:00:26.538Z,1.40
2023-04-02T01:01:26.646Z,3.30
2023-04-02T01:02:26.972Z,1.70
2023-04-02T01:03:26.625Z,1.90
2023-04-02T01:04:26.487Z,1.40
2023-04-02T01:05:26.488Z,1.90
2023-04-02T01:06:26.477Z,2.00
2023-04-02T01:07:26.445Z,2.10
2023-04-02T01:08:26.435Z,1.50
2023-04-02T01:09:26.463Z,1.50
2023-04-02T01:10:26.409Z,1.40
2023-04-02T01:11:26.419Z,1.40
2023-04-02T01:12:26.408Z,2.40
2023-04-02T01:13:26.385Z,3.20
2023-04-02T01:14:26.387Z,1.50
2023-04-02T01:15:26.333Z,2.10
2023-04-02T01:16:26.410Z,1.50
2023-04-02T01:17:26.376Z,2.40
2023-04-02T01:18:26.289Z,1.70
2023-04-02T01:19:26.293Z,2.00
2023-04-02T01:20:26.279Z,1.60
2023-04-02T01:21:26.284Z,1.40
2023-04-02T01:22:26.259Z,2.30
2023-04-02T01:23:26.244Z,1.70
2023-04-02T01:24:26.218Z,2.60
2023-04-02T01:25:26.205Z,4.30
2023-04-02T01:26:26.231Z,1.50
2023-04-02T01:27:26.195Z,2.20
2023-04-02T01:28:26.173Z,1.60
2023-04-02T01:29:26.152Z,1.70
2023-04-02T01:30:26.141Z,1.80
2023-04-02T01:31:26.193Z,2.80
2023-04-02T01:32:26.123Z,2.00
2023-04-02T01:33:26.100Z,4.10
2023-04-02T01:34:26.805Z,1.70
2023-04-02T01:35:26.075Z,2.20
2023-04-02T01:36:26.101Z,2.30
2023-04-02T01:37:26.047Z,2.20
2023-04-02T01:38:26.051Z,2.30
2023-04-02T01:39:26.020Z,3.50
2023-04-02T01:40:26.009Z,2.00
2023-04-02T01:41:26.007Z,1.90
2023-04-02T01:42:25.990Z,3.50
2023-04-02T01:43:25.975Z,4.70
2023-04-02T01:44:25.962Z,3.90
2023-04-02T01:45:25.958Z,3.00
2023-04-02T01:46:26.039Z,3.90
2023-04-02T01:47:25.921Z,2.40
2023-04-02T01:48:25.902Z,3.50
2023-04-02T01:49:25.884Z,2.00
2023-04-02T01:50:25.910Z,2.80
2023-04-02T01:51:25.896Z,2.70
2023-04-02T01:52:25.854Z,1.60
2023-04-02T01:53:25.839Z,3.20
2023-04-02T01:54:25.819Z,5.10
2023-04-02T01:55:25.822Z,2.20
2023-04-02T01:56:25.837Z,2.20
2023-04-02T01:57:25.808Z,2.30
2023-04-02T01:58:25.821Z,2.90
2023-04-02T01:59:25.805Z,2.90
2023-04-02T02:00:25.786Z,2.40
2023-04-02T02:01:25.774Z,2.30
2023-04-02T02:02:25.791Z,2.10
2023-04-02T02:03:25.705Z,2.30
2023-04-02T02:04:25.708Z,4.00
2023-04-02T02:05:25.691Z,2.30
2023-04-02T02:06:25.730Z,2.60
2023-04-02T02:07:25.667Z,5.50
2023-04-02T02:08:25.647Z,2.50
2023-04-02T02:09:25.631Z,2.00
2023-04-02T02:10:25.695Z,2.90
2023-04-02T02:11:25.666Z,2.20
2023-04-02T02:12:25.645Z,2.90
2023-04-02T02:13:25.656Z,2.90
2023-04-02T02:14:25.673Z,3.00
2023-04-02T02:15:25.555Z,2.70
2023-04-02T02:16:25.649Z,3.30
2023-04-02T02:17:25.572Z,3.50
2023-04-02T02:18:25.521Z,2.50
2023-04-02T02:19:25.505Z,2.20
2023-04-02T02:20:25.503Z,4.20
2023-04-02T02:21:25.490Z,3.20
2023-04-02T02:22:25.502Z,4.80
2023-04-02T02:23:25.481Z,3.10
2023-04-02T02:24:25.453Z,4.00
2023-04-02T02:25:25.421Z,3.30
2023-04-02T02:26:25.446Z,3.40
2023-04-02T02:27:25.427Z,3.20
2023-04-02T02:28:25.405Z,3.40
2023-04-02T02:29:25.421Z,3.10
2023-04-02T02:30:25.380Z,4.10
2023-04-02T02:31:25.395Z,2.70
2023-04-02T02:32:25.436Z,5.40
2023-04-02T02:33:25.389Z,3.10
2023-04-02T02:34:25.309Z,4.00
2023-04-02T02:35:25.304Z,6.10
2023-04-02T02:36:25.387Z,3.00
2023-04-02T02:37:25.298Z,2.40
2023-04-02T02:38:25.262Z,2.50
2023-04-02T02:39:25.252Z,4.40
2023-04-02T02:40:25.252Z,3.40
2023-04-02T02:41:25.244Z,3.20
2023-04-02T02:42:25.245Z,2.40
2023-04-02T02:43:25.228Z,2.50
2023-04-02T02:44:25.189Z,2.70
2023-04-02T02:45:25.205Z,3.80
2023-04-02T02:46:25.237Z,2.90
2023-04-02T02:47:25.202Z,2.80
2023-04-02T02:48:25.143Z,2.70
2023-04-02T02:49:25.124Z,2.70
2023-04-02T02:50:25.127Z,2.50
2023-04-02T02:51:25.102Z,3.40
2023-04-02T02:52:25.146Z,2.40
2023-04-02T02:53:25.073Z,3.30
2023-04-02T02:54:25.049Z,2.80
2023-04-02T02:55:25.066Z,3.10
2023-04-02T02:56:25.039Z,2.50
2023-04-02T02:57:25.111Z,2.40
2023-04-02T02:58:25.028Z,3.20
2023-04-02T02:59:25.021Z,2.60
2023-04-02T03:00:25.001Z,3.50
2023-04-02T03:01:24.984Z,3.40
2023-04-02T03:02:25.037Z,4.80
2023-04-02T03:03:25.176Z,2.70
2023-04-02T03:04:25.056Z,2.80
2023-04-02T03:05:24.906Z,2.50
2023-04-02T03:06:24.910Z,3.20
2023-04-02T03:07:24.921Z,2.40
2023-04-02T03:08:24.891Z,2.60
2023-04-02T03:09:24.881Z,3.50
2023-04-02T03:10:24.852Z,2.30
2023-04-02T03:11:24.844Z,3.60
2023-04-02T03:12:24.837Z,2.80
2023-04-02T03:13:24.820Z,2.60
2023-04-02T03:14:24.819Z,2.90
2023-04-02T03:15:24.787Z,3.30
2023-04-02T03:16:24.773Z,2.60
2023-04-02T03:17:24.788Z,2.60
2023-04-02T03:18:24.783Z,2.90
2023-04-02T03:19:24.732Z,3.20
2023-04-02T03:20:24.724Z,4.00
2023-04-02T03:21:24.712Z,2.70
2023-04-02T03:22:24.742Z,3.10
2023-04-02T03:23:24.700Z,3.80
2023-04-02T03:24:24.671Z,2.90
2023-04-02T03:25:24.674Z,3.90
2023-04-02T03:26:24.633Z,3.00
2023-04-02T03:27:24.643Z,2.40
2023-04-02T03:28:24.639Z,3.10
2023-04-02T03:29:24.609Z,2.60
2023-04-02T03:30:24.625Z,3.00
2023-04-02T03:31:24.642Z,2.50
2023-04-02T03:32:24.581Z,2.70
2023-04-02T03:33:24.563Z,3.30
2023-04-02T03:34:24.538Z,3.60
2023-04-02T03:35:24.523Z,2.70
2023-04-02T03:36:24.534Z,2.90
2023-04-02T03:37:24.509Z,4.10
2023-04-02T03:38:24.499Z,2.60
2023-04-02T03:39:24.537Z,2.90
2023-04-02T03:40:24.458Z,2.70
2023-04-02T03:41:24.448Z,2.60
2023-04-02T03:42:24.449Z,3.30
2023-04-02T03:43:24.460Z,5.00
2023-04-02T03:44:24.407Z,2.90
2023-04-02T03:45:24.413Z,2.80
2023-04-02T03:46:24.468Z,3.10
2023-04-02T03:47:24.421Z,3.10
2023-04-02T03:48:24.371Z,2.40
2023-04-02T03:49:24.377Z,3.90
2023-04-02T04:02:50.251Z,4.60
2023-04-02T04:03:57.209Z,3.70
2023-04-02T04:04:57.675Z,5.60
2023-04-02T04:05:50.140Z,3.90
2023-04-02T04:06:50.140Z,3.70
2023-04-02T04:07:50.124Z,4.00
2023-04-02T04:08:50.130Z,3.80
2023-04-02T04:09:50.121Z,4.70
2023-04-02T04:10:50.141Z,4.50
2023-04-02T04:11:57.078Z,4.20
2023-04-02T04:12:50.067Z,4.60
2023-04-02T04:13:50.053Z,3.60
2023-04-02T04:14:50.032Z,4.60
2023-04-02T04:15:50.013Z,4.30
2023-04-02T04:16:50.103Z,4.90
2023-04-02T04:17:57.063Z,4.20
2023-04-02T04:18:50.020Z,3.70
2023-04-02T04:19:49.972Z,4.20
2023-04-02T04:20:49.985Z,3.80
2023-04-02T04:21:49.954Z,4.30
2023-04-02T04:22:49.953Z,4.20
2023-04-02T04:23:49.940Z,4.10
2023-04-02T04:24:49.950Z,4.30
2023-04-02T04:25:49.894Z,3.80
2023-04-02T04:26:49.895Z,4.30
2023-04-02T04:27:49.892Z,4.60
2023-04-02T04:28:49.910Z,5.50
2023-04-02T04:29:49.855Z,4.40
2023-04-02T04:30:49.832Z,4.70
2023-04-02T04:31:49.955Z,4.40
2023-04-02T04:32:49.842Z,4.70
2023-04-02T04:33:49.813Z,4.00
2023-04-02T04:34:49.803Z,5.10
2023-04-02T04:35:49.862Z,4.20
2023-04-02T04:36:49.763Z,4.00
2023-04-02T04:37:49.736Z,4.00
2023-04-02T04:38:49.746Z,5.90
2023-04-02T04:39:49.733Z,4.50
2023-04-02T04:40:49.706Z,5.40
2023-04-02T04:41:49.690Z,4.40
2023-04-02T04:42:49.689Z,4.30
2023-04-02T04:43:49.665Z,4.60
2023-04-02T04:44:49.670Z,4.30
2023-04-02T04:45:49.661Z,4.00
2023-04-02T04:46:49.618Z,3.70
2023-04-02T04:47:49.658Z,3.90
2023-04-02T04:48:49.633Z,3.90
2023-04-02T04:49:49.596Z,4.30
2023-04-02T04:50:49.570Z,5.10
2023-04-02T04:51:49.574Z,4.60
2023-04-02T04:52:49.576Z,4.60
2023-04-02T04:53:49.535Z,4.30
2023-04-02T04:54:49.541Z,4.30
2023-04-02T04:55:49.512Z,4.80
2023-04-02T04:56:49.530Z,4.80
2023-04-02T04:57:49.487Z,4.30
2023-04-02T04:58:49.489Z,5.20
2023-04-02T04:59:49.457Z,3.80
2023-04-02T05:00:50.182Z,4.60
2023-04-02T05:01:49.477Z,4.00
2023-04-02T05:02:49.456Z,3.80
2023-04-02T05:03:49.392Z,3.80
2023-04-02T05:04:49.425Z,4.00
2023-04-02T05:05:49.374Z,3.60
2023-04-02T05:06:49.359Z,3.70
2023-04-02T05:07:49.328Z,4.70
2023-04-02T05:08:49.340Z,3.50
2023-04-02T05:09:49.327Z,3.90
2023-04-02T05:10:49.297Z,4.00
2023-04-02T05:11:49.297Z,4.10
2023-04-02T05:12:49.280Z,4.40
2023-04-02T05:13:49.269Z,3.90
2023-04-02T05:14:49.349Z,4.20
2023-04-02T05:15:49.249Z,3.80
2023-04-02T05:16:49.238Z,4.80
2023-04-02T05:17:49.285Z,3.70
2023-04-02T05:18:49.186Z,4.40
2023-04-02T05:19:49.192Z,4.40
2023-04-02T05:20:49.160Z,4.70
2023-04-02T05:21:49.163Z,4.20
2023-04-02T05:22:49.147Z,4.10
2023-04-02T05:23:49.129Z,4.70
2023-04-02T05:24:49.112Z,4.30
2023-04-02T05:25:49.099Z,3.90
2023-04-02T05:26:49.094Z,4.40
2023-04-02T05:27:49.091Z,4.60
2023-04-02T05:28:49.083Z,3.90
2023-04-02T05:29:49.048Z,4.10
2023-04-02T05:30:49.034Z,4.60
2023-04-02T05:31:49.061Z,3.70
2023-04-02T05:32:49.041Z,4.30
2023-04-02T05:33:48.985Z,4.40
2023-04-02T05:34:48.992Z,4.10
2023-04-02T05:35:49.009Z,3.70
2023-04-02T05:36:48.972Z,4.40
2023-04-02T05:37:48.962Z,4.40
2023-04-02T05:38:48.943Z,4.00
2023-04-02T05:39:48.925Z,4.30
2023-04-02T05:40:48.909Z,4.00
2023-04-02T05:41:48.912Z,4.10
2023-04-02T05:42:48.893Z,6.80
2023-04-02T05:43:48.883Z,4.00
2023-04-02T05:44:48.896Z,4.20
2023-04-02T05:45:48.835Z,4.10
2023-04-02T05:46:48.929Z,4.20
2023-04-02T05:47:48.844Z,3.70
2023-04-02T05:48:48.803Z,4.70
2023-04-02T05:49:48.872Z,4.10
2023-04-02T05:50:48.810Z,4.20
2023-04-02T05:51:48.756Z,3.90
2023-04-02T05:52:48.895Z,3.80
2023-04-02T05:53:48.767Z,4.20
2023-04-02T05:54:48.720Z,3.90
2023-04-02T05:55:48.726Z,4.80
2023-04-02T05:56:48.737Z,3.70
2023-04-02T05:58:01.149Z,4.20
2023-04-02T05:58:49.730Z,4.20
2023-04-02T05:59:48.657Z,4.70
2023-04-02T06:00:48.686Z,4.20
2023-04-02T06:01:48.631Z,4.10
2023-04-02T06:02:48.665Z,4.10
2023-04-02T06:03:48.628Z,4.00
2023-04-02T06:04:48.596Z,3.70
2023-04-02T06:05:48.637Z,4.00
2023-04-02T06:06:48.573Z,4.50
2023-04-02T06:07:48.704Z,4.10
2023-04-02T06:08:48.539Z,4.40
2023-04-02T06:09:48.548Z,4.80
2023-04-02T06:10:48.526Z,4.00
2023-04-02T06:11:48.530Z,3.90
2023-04-02T06:12:48.484Z,4.10
2023-04-02T06:13:48.466Z,3.90
2023-04-02T06:14:48.465Z,4.10
2023-04-02T06:15:48.481Z,4.10
2023-04-02T06:16:48.447Z,4.40
2023-04-02T06:17:48.434Z,4.30
2023-04-02T06:18:48.422Z,4.30
2023-04-02T06:19:48.428Z,4.30
2023-04-02T06:20:48.387Z,4.70
2023-04-02T06:21:48.348Z,5.60
2023-04-02T06:22:48.369Z,5.00
2023-04-02T06:23:48.342Z,4.30
2023-04-02T06:24:48.350Z,4.50
2023-04-02T06:25:48.324Z,5.30
2023-04-02T06:26:48.291Z,5.10
2023-04-02T06:27:48.278Z,4.50
2023-04-02T06:28:48.288Z,5.00
2023-04-02T06:29:48.300Z,4.90
2023-04-02T06:30:48.469Z,4.70
2023-04-02T06:31:49.406Z,4.90
2023-04-02T06:32:48.294Z,4.80
2023-04-02T06:33:48.209Z,4.70
2023-04-02T06:34:48.185Z,5.30
2023-04-02T06:35:48.206Z,5.20
2023-04-02T06:36:48.166Z,4.80
2023-04-02T06:37:48.144Z,5.30
2023-04-02T06:38:48.150Z,4.80
2023-04-02T06:39:48.121Z,5.10
2023-04-02T06:40:48.117Z,5.70
2023-04-02T06:41:48.086Z,5.30
2023-04-02T06:42:48.084Z,5.50
2023-04-02T06:43:48.078Z,5.30
2023-04-02T06:44:48.050Z,5.50
2023-04-02T06:45:48.086Z,5.60
2023-04-02T06:46:48.721Z,5.90
2023-04-02T06:47:48.075Z,6.40
2023-04-02T06:48:48.003Z,6.90
2023-04-02T06:49:47.991Z,6.60
2023-04-02T06:50:48.003Z,6.60
2023-04-02T06:51:47.973Z,6.90
2023-04-02T06:52:47.957Z,6.20
2023-04-02T06:53:47.929Z,6.50
2023-04-02T06:54:47.951Z,6.40
2023-04-02T06:55:47.916Z,6.60
2023-04-02T06:56:47.924Z,5.90
2023-04-02T06:57:47.879Z,7.80
2023-04-02T06:58:47.882Z,6.50
2023-04-02T06:59:47.869Z,6.50
2023-04-02T07:00:47.876Z,6.50
2023-04-02T07:01:47.906Z,9.00
2023-04-02T07:02:47.879Z,7.30
2023-04-02T07:03:47.820Z,7.00
2023-04-02T07:04:47.832Z,7.70
2023-04-02T07:05:47.788Z,7.20
2023-04-02T07:06:47.774Z,8.00
2023-04-02T07:07:47.754Z,7.70
2023-04-02T07:08:47.738Z,7.50
2023-04-02T07:09:47.729Z,8.60
2023-04-02T07:10:47.727Z,6.40
2023-04-02T07:11:47.701Z,7.50
2023-04-02T07:12:47.698Z,8.10
2023-04-02T07:13:47.679Z,8.20
2023-04-02T07:14:47.697Z,8.30
2023-04-02T07:15:47.682Z,8.00
2023-04-02T07:16:47.639Z,8.00
2023-04-02T07:17:47.621Z,7.10
2023-04-02T07:18:47.611Z,7.60
2023-04-02T07:19:47.668Z,8.10
2023-04-02T07:20:47.602Z,8.20
2023-04-02T07:21:47.563Z,8.30
2023-04-02T07:22:47.552Z,8.20
2023-04-02T07:23:47.533Z,9.60
2023-04-02T07:24:47.540Z,8.90
2023-04-02T07:25:47.530Z,8.70
2023-04-02T07:26:47.500Z,8.80
2023-04-02T07:27:47.491Z,9.40
2023-04-02T07:28:47.501Z,9.30
2023-04-02T07:29:47.519Z,10.20
2023-04-02T07:30:47.461Z,10.40
2023-04-02T07:31:47.449Z,10.00
2023-04-02T07:32:47.438Z,9.50
2023-04-02T07:33:47.406Z,9.80
2023-04-02T07:34:47.396Z,8.70
2023-04-02T07:35:47.428Z,8.80
2023-04-02T07:36:47.362Z,9.70
2023-04-02T07:37:47.360Z,8.90
2023-04-02T07:38:47.351Z,8.70
2023-04-02T07:39:47.325Z,12.70
2023-04-02T07:40:47.333Z,9.60
2023-04-02T07:41:47.320Z,10.70
2023-04-02T07:42:47.327Z,11.10
2023-04-02T07:43:47.282Z,9.70
2023-04-02T07:44:47.285Z,10.80
2023-04-02T07:45:47.266Z,13.30
2023-04-02T07:46:47.310Z,11.40
2023-04-02T07:47:47.248Z,12.90
2023-04-02T07:48:47.228Z,9.90
2023-04-02T07:49:47.194Z,10.30
2023-04-02T07:50:47.207Z,10.60
2023-04-02T07:51:47.163Z,10.50
2023-04-02T07:52:47.157Z,10.70
2023-04-02T07:53:47.144Z,11.00
2023-04-02T07:54:47.134Z,11.00
2023-04-02T07:55:47.134Z,11.60
2023-04-02T07:56:47.167Z,10.20
2023-04-02T07:57:47.096Z,10.40
2023-04-02T07:58:47.098Z,10.00
2023-04-02T07:59:47.070Z,11.90
2023-04-02T08:00:47.063Z,13.60
2023-04-02T08:01:47.126Z,11.60
2023-04-02T08:02:47.037Z,13.20
2023-04-02T08:03:47.073Z,10.50
2023-04-02T08:04:46.998Z,8.90
2023-04-02T08:05:47.008Z,8.60
2023-04-02T08:06:46.978Z,9.40
2023-04-02T08:07:46.968Z,11.40
2023-04-02T08:08:46.948Z,11.50
2023-04-02T08:09:46.939Z,9.90
2023-04-02T08:10:46.922Z,8.00
2023-04-02T08:11:46.951Z,4.80
2023-04-02T08:12:46.890Z,2.40
2023-04-02T08:13:46.876Z,2.10
2023-04-02T08:14:46.875Z,1.50
2023-04-02T08:15:46.869Z,1.20
2023-04-02T08:16:46.890Z,0.90
2023-04-02T08:17:46.868Z,0.90
2023-04-02T08:18:46.818Z,1.50
2023-04-02T08:19:54.694Z,0.70
2023-04-02T08:20:47.811Z,0.60
2023-04-02T08:21:46.800Z,1.10
2023-04-02T08:22:46.802Z,0.60
2023-04-02T08:23:46.754Z,1.10
2023-04-02T08:24:46.731Z,1.00
2023-04-02T08:25:46.733Z,0.60
2023-04-02T08:26:46.726Z,0.80
2023-04-02T08:27:46.714Z,0.50
2023-04-02T08:28:46.711Z,0.60
2023-04-02T08:29:46.689Z,1.80
2023-04-02T08:30:46.686Z,1.00
2023-04-02T08:31:46.666Z,1.20
2023-04-02T08:32:46.678Z,1.20
2023-04-02T08:33:46.630Z,0.80
2023-04-02T08:34:46.602Z,1.00
2023-04-02T08:35:46.663Z,0.90
2023-04-02T08:36:46.597Z,0.90
2023-04-02T08:37:46.570Z,1.90
2023-04-02T08:38:46.547Z,1.20
2023-04-02T08:39:46.537Z,0.90
2023-04-02T08:40:46.529Z,1.20
2023-04-02T08:41:46.531Z,1.70
2023-04-02T08:42:46.516Z,1.80
2023-04-02T08:43:46.490Z,1.70
2023-04-02T08:44:46.483Z,1.40
2023-04-02T08:45:46.513Z,0.70
2023-04-02T08:46:46.459Z,0.60
2023-04-02T08:47:46.490Z,0.90
2023-04-02T08:48:46.441Z,0.80
2023-04-02T08:49:46.404Z,1.00
2023-04-02T08:50:46.396Z,0.80
2023-04-02T08:51:46.433Z,1.50
2023-04-02T08:52:46.364Z,1.20
2023-04-02T08:53:46.367Z,2.10
2023-04-02T08:54:46.348Z,0.80
2023-04-02T08:55:46.340Z,1.70
2023-04-02T08:56:46.333Z,0.90
2023-04-02T08:57:46.310Z,0.60
2023-04-02T08:58:46.292Z,1.20
2023-04-02T08:59:46.282Z,1.40
2023-04-02T09:00:46.260Z,0.60
2023-04-02T09:01:46.330Z,1.70
2023-04-02T09:02:46.259Z,0.80
2023-04-02T09:03:46.248Z,1.00
2023-04-02T09:04:46.232Z,0.50
2023-04-02T09:05:46.202Z,0.60
2023-04-02T09:06:46.206Z,0.50
2023-04-02T09:07:46.177Z,0.70
2023-04-02T09:08:46.183Z,0.60
2023-04-02T09:09:46.141Z,0.40
2023-04-02T09:10:46.133Z,1.30
2023-04-02T09:11:46.134Z,0.60
2023-04-02T09:12:46.114Z,0.90
2023-04-02T09:13:46.091Z,1.40
2023-04-02T09:14:46.080Z,1.30
2023-04-02T09:15:46.126Z,1.90
2023-04-02T09:16:46.048Z,0.90
2023-04-02T09:17:53.556Z,1.40
2023-04-02T09:18:47.006Z,1.10
2023-04-02T09:19:46.003Z,0.70
2023-04-02T09:20:45.982Z,0.70
2023-04-02T09:21:45.991Z,0.90
2023-04-02T09:22:45.967Z,0.80
2023-04-02T09:23:45.965Z,0.60
2023-04-02T09:24:45.939Z,0.80
2023-04-02T09:25:54.051Z,0.60
2023-04-02T09:26:46.941Z,1.30
2023-04-02T09:27:45.928Z,0.60
2023-04-02T09:28:45.917Z,0.60
2023-04-02T09:29:45.884Z,0.40
2023-04-02T09:30:45.865Z,0.70
2023-04-02T09:31:45.902Z,0.70
2023-04-02T09:32:45.993Z,0.60
2023-04-02T09:33:45.837Z,0.80
2023-04-02T09:34:45.828Z,0.80
2023-04-02T09:35:45.812Z,0.60
2023-04-02T09:36:45.804Z,0.60
2023-04-02T09:37:45.794Z,1.00
2023-04-02T09:38:45.764Z,1.30
2023-04-02T09:39:45.761Z,0.50
2023-04-02T09:40:45.746Z,0.50
2023-04-02T09:41:50.237Z,0.50
2023-04-02T09:42:46.724Z,0.80
2023-04-02T09:43:45.726Z,0.90
2023-04-02T09:44:45.689Z,0.40
2023-04-02T09:45:45.697Z,1.20
2023-04-02T09:46:45.733Z,0.60
2023-04-02T10:03:05.332Z,0.40
2023-04-02T10:04:05.225Z,0.40
2023-04-02T10:05:05.201Z,1.00
2023-04-02T10:06:05.193Z,0.50
2023-04-02T10:07:05.173Z,0.60
2023-04-02T10:08:05.176Z,2.70
2023-04-02T10:09:05.184Z,1.00
2023-04-02T10:10:05.204Z,0.90
2023-04-02T10:11:05.134Z,0.60
2023-04-02T10:12:05.113Z,0.50
2023-04-02T10:13:05.116Z,0.40
2023-04-02T10:14:05.082Z,0.40
2023-04-02T10:15:05.095Z,0.50
2023-04-02T10:16:05.171Z,0.60
2023-04-02T10:17:05.102Z,0.40
2023-04-02T10:18:05.183Z,1.00
2023-04-02T10:19:05.031Z,0.50
2023-04-02T10:20:05.023Z,0.60
2023-04-02T10:21:05.024Z,0.40
2023-04-02T10:22:04.994Z,0.90
2023-04-02T10:23:06.450Z,0.50
2023-04-02T10:24:04.960Z,0.50
2023-04-02T10:25:04.950Z,0.80
2023-04-02T10:26:04.975Z,0.60
2023-04-02T10:27:04.961Z,0.50
2023-04-02T10:28:04.947Z,0.50
2023-04-02T10:29:06.864Z,0.50
2023-04-02T10:30:05.041Z,1.10
2023-04-02T10:31:04.944Z,0.60
2023-04-02T10:32:04.908Z,0.50
2023-04-02T10:33:04.953Z,0.70
2023-04-02T10:34:04.839Z,0.50
2023-04-02T10:35:04.823Z,1.00
2023-04-02T10:36:04.909Z,0.70
2023-04-02T10:37:04.884Z,0.70
2023-04-02T10:38:04.869Z,0.50
2023-04-02T10:39:04.801Z,0.50
2023-04-02T10:40:04.830Z,0.50
2023-04-02T10:41:04.737Z,0.90
2023-04-02T10:42:04.730Z,1.00
2023-04-02T10:43:04.722Z,1.60
2023-04-02T10:44:19.631Z,1.10
2023-04-02T10:45:05.691Z,0.90
2023-04-02T10:46:04.706Z,0.70
2023-04-02T10:47:04.695Z,0.60
2023-04-02T10:48:04.745Z,1.30
2023-04-02T10:49:04.666Z,1.10
2023-04-02T10:50:04.637Z,0.80
2023-04-02T10:51:04.620Z,0.80
2023-04-02T10:52:04.598Z,0.90
2023-04-02T10:53:04.612Z,0.80
2023-04-02T10:54:04.595Z,0.80
2023-04-02T10:55:04.572Z,0.70
2023-04-02T10:56:04.578Z,1.80
2023-04-02T10:57:04.568Z,0.60
2023-04-02T10:58:04.548Z,0.60
2023-04-02T10:59:04.516Z,0.70
2023-04-02T11:00:04.497Z,0.70
2023-04-02T11:01:04.499Z,0.60
2023-04-02T11:02:04.481Z,0.70
2023-04-02T11:03:04.555Z,1.10
2023-04-02T11:04:04.465Z,0.50
2023-04-02T11:05:04.448Z,0.70
2023-04-02T11:06:04.426Z,0.70
2023-04-02T11:07:13.825Z,1.00
2023-04-02T11:08:05.396Z,0.80
2023-04-02T11:09:04.398Z,1.30
2023-04-02T11:10:04.379Z,0.50
2023-04-02T11:11:04.816Z,0.50
2023-04-02T11:12:04.351Z,0.50
2023-04-02T11:13:04.335Z,0.50
2023-04-02T11:14:04.322Z,0.60
2023-04-02T11:15:04.309Z,0.60
2023-04-02T11:16:04.339Z,0.60
2023-04-02T11:17:04.289Z,1.60
2023-04-02T11:18:04.356Z,0.70
2023-04-02T11:19:04.273Z,1.00
2023-04-02T11:20:04.251Z,0.80
2023-04-02T11:21:04.241Z,1.00
2023-04-02T11:22:06.742Z,0.80
2023-04-02T11:23:04.211Z,0.80
2023-04-02T11:24:04.198Z,1.60
2023-04-02T11:25:04.174Z,0.70
2023-04-02T11:26:04.172Z,0.60
2023-04-02T11:27:04.145Z,0.70
2023-04-02T11:28:04.176Z,0.60
2023-04-02T11:29:04.137Z,0.50
2023-04-02T11:30:04.160Z,1.30
2023-04-02T11:31:04.125Z,0.50
2023-04-02T11:32:04.097Z,1.10
2023-04-02T11:33:04.121Z,0.50
2023-04-02T11:35:12.924Z,0.50
2023-04-02T11:36:12.930Z,0.50
2023-04-02T11:37:12.902Z,0.60
2023-04-02T11:38:12.896Z,0.50
2023-04-02T11:39:17.400Z,0.90
2023-04-02T11:40:12.869Z,0.70
2023-04-02T11:41:12.890Z,0.80
2023-04-02T11:42:12.861Z,2.00
2023-04-02T11:43:12.824Z,1.10
2023-04-02T11:44:12.822Z,0.60
2023-04-02T11:45:12.804Z,0.70
2023-04-02T11:46:12.780Z,0.50
2023-04-02T11:47:12.761Z,0.40
2023-04-02T11:48:12.768Z,0.40
2023-04-02T11:49:12.735Z,0.60
2023-04-02T11:50:12.784Z,0.60
2023-04-02T11:51:12.716Z,0.40
2023-04-02T11:52:12.984Z,0.50
2023-04-02T11:53:12.714Z,0.50
2023-04-02T11:54:12.705Z,0.50
2023-04-02T11:55:12.660Z,0.60
2023-04-02T11:56:12.650Z,0.60
2023-04-02T11:57:12.668Z,0.80
2023-04-02T11:58:12.630Z,0.80
2023-04-02T11:59:12.645Z,1.20
2023-04-02T12:00:12.600Z,1.50
2023-04-02T12:01:12.619Z,1.40
2023-04-02T12:02:12.639Z,0.70
2023-04-02T12:03:12.612Z,0.50
2023-04-02T12:04:12.552Z,0.80
2023-04-02T12:05:12.601Z,0.80
2023-04-02T12:06:12.586Z,0.70
2023-04-02T12:07:12.497Z,0.70
2023-04-02T12:08:12.527Z,0.60
2023-04-02T12:09:12.477Z,0.90
2023-04-02T12:10:12.474Z,1.50
2023-04-02T12:11:12.442Z,2.10
2023-04-02T12:12:12.434Z,1.70
2023-04-02T12:13:12.435Z,1.20
2023-04-02T12:14:12.452Z,1.20
2023-04-02T12:15:12.392Z,1.50
2023-04-02T12:16:12.381Z,1.20
2023-04-02T12:17:12.499Z,1.40
2023-04-02T12:18:12.396Z,1.30
2023-04-02T12:19:12.355Z,1.60
2023-04-02T12:20:12.328Z,1.20
2023-04-02T12:21:12.318Z,1.10
2023-04-02T12:22:12.336Z,0.90
2023-04-02T12:23:12.296Z,0.90
2023-04-02T12:24:12.278Z,0.90
2023-04-02T12:25:12.275Z,1.30
2023-04-02T12:26:12.248Z,0.90
2023-04-02T12:27:12.265Z,0.90
2023-04-02T12:28:12.248Z,1.10
2023-04-02T12:29:12.204Z,1.50
2023-04-02T12:30:12.260Z,12.00
2023-04-02T12:31:12.189Z,3.60
2023-04-02T12:32:12.177Z,1.40
2023-04-02T12:33:12.191Z,1.70
2023-04-02T12:34:12.191Z,1.20
2023-04-02T12:35:12.129Z,0.90
2023-04-02T12:36:12.193Z,1.50
2023-04-02T12:37:12.106Z,1.40
2023-04-02T12:38:12.108Z,1.50
2023-04-02T12:39:12.077Z,1.30
2023-04-02T12:40:12.076Z,1.20
2023-04-02T12:41:12.043Z,2.40
2023-04-02T12:42:12.079Z,1.60
2023-04-02T12:43:12.192Z,1.50
2023-04-02T12:44:12.038Z,1.00
2023-04-02T12:45:12.012Z,1.20
2023-04-02T12:46:12.070Z,1.10
2023-04-02T12:47:11.993Z,1.00
2023-04-02T12:48:12.063Z,1.10
2023-04-02T12:49:11.946Z,1.40
2023-04-02T12:50:11.985Z,1.60
2023-04-02T12:51:11.922Z,1.40
2023-04-02T12:52:11.908Z,1.50
2023-04-02T12:53:11.897Z,1.00
2023-04-02T12:54:11.883Z,1.40
2023-04-02T12:55:11.869Z,1.60
2023-04-02T12:56:11.869Z,2.10
2023-04-02T12:57:11.905Z,1.60
2023-04-02T12:58:11.844Z,1.70
2023-04-02T12:59:11.877Z,1.40
2023-04-02T13:00:11.893Z,1.50
2023-04-02T13:01:11.866Z,1.40
2023-04-02T13:02:11.889Z,1.40
2023-04-02T13:03:11.872Z,1.20
2023-04-02T13:04:12.000Z,1.00
2023-04-02T13:05:11.747Z,1.30
2023-04-02T13:06:11.756Z,1.50
2023-04-02T13:07:11.720Z,1.70
2023-04-02T13:08:11.708Z,1.30
2023-04-02T13:09:11.698Z,1.60
2023-04-02T13:10:11.782Z,1.20
2023-04-02T13:11:11.669Z,1.30
2023-04-02T13:12:11.652Z,1.60
2023-04-02T13:13:11.701Z,1.20
2023-04-02T13:14:11.628Z,1.20
2023-04-02T13:15:11.616Z,1.20
2023-04-02T13:16:11.678Z,1.50
2023-04-02T13:17:11.577Z,1.10
2023-04-02T13:18:11.592Z,1.30
2023-04-02T13:19:11.605Z,1.60
2023-04-02T13:20:11.575Z,1.50
2023-04-02T13:21:11.532Z,1.70
2023-04-02T13:22:11.516Z,1.30
2023-04-02T13:23:11.526Z,1.60
2023-04-02T13:24:11.508Z,2.00
2023-04-02T13:25:11.485Z,2.50
2023-04-02T13:26:11.470Z,2.00
2023-04-02T13:27:11.460Z,1.50
2023-04-02T13:28:11.454Z,1.40
2023-04-02T13:29:11.442Z,1.50
2023-04-02T13:30:11.440Z,2.00
2023-04-02T13:31:11.427Z,2.20
2023-04-02T13:32:11.395Z,2.00
2023-04-02T13:33:11.374Z,1.70
2023-04-02T13:34:11.372Z,2.10
2023-04-02T13:35:11.360Z,1.60
2023-04-02T13:36:11.431Z,1.60
2023-04-02T13:37:11.349Z,1.70
2023-04-02T13:38:11.323Z,1.70
2023-04-02T13:39:11.313Z,1.40
2023-04-02T13:40:11.335Z,1.50
2023-04-02T13:41:11.259Z,1.50
2023-04-02T13:42:11.262Z,2.30
2023-04-02T13:43:11.243Z,1.50
2023-04-02T13:44:11.263Z,1.80
2023-04-02T13:45:11.336Z,1.80
2023-04-02T13:46:11.219Z,2.10